sensor_id;sensor_type;location;lat;lon;timestamp;P1;durP1;ratioP1;P2;durP2;ratioP2
19509;SDS011;9896;42.486;26.506;2023-02-15T00:00:26;10.57;;;6.40;;
19509;SDS011;9896;42.486;26.506;2023-02-15T00:02:52;7.00;;;3.63;;
19509;SDS011;9896;42.486;26.506;2023-02-15T00:05:18;10.63;;;6.23;;
19509;SDS011;9896;42.486;26.506;2023-02-15T00:07:43;16.93;;;8.97;;
19509;SDS011;9896;42.486;26.506;2023-02-15T00:10:09;7.70;;;4.33;;
19509;SDS011;9896;42.486;26.506;2023-02-15T00:12:37;7.27;;;3.90;;
19509;SDS011;9896;42.486;26.506;2023-02-15T00:15:02;4.90;;;3.03;;
19509;SDS011;9896;42.486;26.506;2023-02-15T00:17:28;13.40;;;5.20;;
19509;SDS011;9896;42.486;26.506;2023-02-15T00:19:54;15.30;;;5.33;;
19509;SDS011;9896;42.486;26.506;2023-02-15T00:22:19;10.87;;;5.40;;
19509;SDS011;9896;42.486;26.506;2023-02-15T00:24:45;19.43;;;8.13;;
19509;SDS011;9896;42.486;26.506;2023-02-15T00:27:11;10.07;;;4.97;;
19509;SDS011;9896;42.486;26.506;2023-02-15T00:29:37;10.57;;;6.13;;
19509;SDS011;9896;42.486;26.506;2023-02-15T00:32:03;13.17;;;6.53;;
19509;SDS011;9896;42.486;26.506;2023-02-15T00:34:28;11.63;;;6.63;;
19509;SDS011;9896;42.486;26.506;2023-02-15T00:36:54;10.20;;;5.00;;
19509;SDS011;9896;42.486;26.506;2023-02-15T00:39:20;15.33;;;4.13;;
19509;SDS011;9896;42.486;26.506;2023-02-15T00:41:46;14.00;;;5.40;;
19509;SDS011;9896;42.486;26.506;2023-02-15T00:44:12;17.80;;;7.47;;
19509;SDS011;9896;42.486;26.506;2023-02-15T00:46:39;4.43;;;3.00;;
19509;SDS011;9896;42.486;26.506;2023-02-15T00:49:05;9.63;;;5.53;;
19509;SDS011;9896;42.486;26.506;2023-02-15T00:51:31;9.93;;;6.20;;
19509;SDS011;9896;42.486;26.506;2023-02-15T00:53:57;11.90;;;6.10;;
19509;SDS011;9896;42.486;26.506;2023-02-15T00:56:22;9.40;;;4.83;;
19509;SDS011;9896;42.486;26.506;2023-02-15T00:58:48;10.40;;;4.83;;
19509;SDS011;9896;42.486;26.506;2023-02-15T01:01:15;14.77;;;7.90;;
19509;SDS011;9896;42.486;26.506;2023-02-15T01:03:42;6.90;;;3.57;;
19509;SDS011;9896;42.486;26.506;2023-02-15T01:06:08;9.67;;;4.13;;
19509;SDS011;9896;42.486;26.506;2023-02-15T01:08:36;15.17;;;5.83;;
19509;SDS011;9896;42.486;26.506;2023-02-15T01:11:06;9.53;;;4.03;;
19509;SDS011;9896;42.486;26.506;2023-02-15T01:13:34;9.50;;;2.70;;
19509;SDS011;9896;42.486;26.506;2023-02-15T01:16:00;13.83;;;5.17;;
19509;SDS011;9896;42.486;26.506;2023-02-15T01:18:27;10.93;;;6.17;;
19509;SDS011;9896;42.486;26.506;2023-02-15T01:20:52;12.10;;;5.50;;
19509;SDS011;9896;42.486;26.506;2023-02-15T01:23:18;13.57;;;5.37;;
19509;SDS011;9896;42.486;26.506;2023-02-15T01:25:43;13.63;;;7.20;;
19509;SDS011;9896;42.486;26.506;2023-02-15T01:28:09;16.30;;;7.83;;
19509;SDS011;9896;42.486;26.506;2023-02-15T01:30:35;16.90;;;10.03;;
19509;SDS011;9896;42.486;26.506;2023-02-15T01:33:01;18.67;;;9.53;;
19509;SDS011;9896;42.486;26.506;2023-02-15T01:35:27;18.23;;;10.40;;
19509;SDS011;9896;42.486;26.506;2023-02-15T01:37:53;17.53;;;9.03;;
19509;SDS011;9896;42.486;26.506;2023-02-15T01:40:20;17.63;;;9.00;;
19509;SDS011;9896;42.486;26.506;2023-02-15T01:42:49;18.97;;;9.67;;
19509;SDS011;9896;42.486;26.506;2023-02-15T01:45:20;18.37;;;10.03;;
19509;SDS011;9896;42.486;26.506;2023-02-15T01:47:54;22.57;;;9.57;;
19509;SDS011;9896;42.486;26.506;2023-02-15T01:56:06;21.50;;;10.40;;
19509;SDS011;9896;42.486;26.506;2023-02-15T01:58:42;19.03;;;9.37;;
19509;SDS011;9896;42.486;26.506;2023-02-15T02:01:08;13.20;;;7.33;;
19509;SDS011;9896;42.486;26.506;2023-02-15T02:06:05;15.83;;;9.47;;
19509;SDS011;9896;42.486;26.506;2023-02-15T02:08:31;12.20;;;7.30;;
19509;SDS011;9896;42.486;26.506;2023-02-15T02:10:57;18.87;;;9.27;;
19509;SDS011;9896;42.486;26.506;2023-02-15T02:13:22;19.27;;;9.97;;
19509;SDS011;9896;42.486;26.506;2023-02-15T02:15:59;21.10;;;10.13;;
19509;SDS011;9896;42.486;26.506;2023-02-15T02:27:18;25.10;;;10.63;;
19509;SDS011;9896;42.486;26.506;2023-02-15T02:35:57;20.77;;;10.10;;
19509;SDS011;9896;42.486;26.506;2023-02-15T02:39:12;18.57;;;9.50;;
19509;SDS011;9896;42.486;26.506;2023-02-15T02:44:58;20.30;;;9.10;;
19509;SDS011;9896;42.486;26.506;2023-02-15T02:47:36;18.17;;;9.43;;
19509;SDS011;9896;42.486;26.506;2023-02-15T02:50:22;13.17;;;7.10;;
19509;SDS011;9896;42.486;26.506;2023-02-15T02:52:51;15.13;;;7.77;;
19509;SDS011;9896;42.486;26.506;2023-02-15T03:00:31;17.50;;;8.10;;
19509;SDS011;9896;42.486;26.506;2023-02-15T03:03:06;20.30;;;9.53;;
19509;SDS011;9896;42.486;26.506;2023-02-15T03:05:37;18.30;;;8.73;;
19509;SDS011;9896;42.486;26.506;2023-02-15T03:08:08;22.87;;;12.03;;
19509;SDS011;9896;42.486;26.506;2023-02-15T03:10:35;23.70;;;12.43;;
19509;SDS011;9896;42.486;26.506;2023-02-15T03:13:04;26.60;;;12.97;;
19509;SDS011;9896;42.486;26.506;2023-02-15T03:15:31;24.23;;;11.30;;
19509;SDS011;9896;42.486;26.506;2023-02-15T03:18:22;25.43;;;12.87;;
19509;SDS011;9896;42.486;26.506;2023-02-15T03:20:53;24.57;;;12.67;;
19509;SDS011;9896;42.486;26.506;2023-02-15T03:23:21;26.60;;;13.37;;
19509;SDS011;9896;42.486;26.506;2023-02-15T03:25:54;24.53;;;12.47;;
19509;SDS011;9896;42.486;26.506;2023-02-15T03:28:23;24.67;;;14.00;;
19509;SDS011;9896;42.486;26.506;2023-02-15T03:31:00;25.87;;;13.77;;
19509;SDS011;9896;42.486;26.506;2023-02-15T03:33:30;25.07;;;12.73;;
19509;SDS011;9896;42.486;26.506;2023-02-15T03:36:04;24.00;;;12.87;;
19509;SDS011;9896;42.486;26.506;2023-02-15T03:39:04;24.73;;;11.60;;
19509;SDS011;9896;42.486;26.506;2023-02-15T03:41:40;23.20;;;12.33;;
19509;SDS011;9896;42.486;26.506;2023-02-15T03:44:14;24.53;;;12.93;;
19509;SDS011;9896;42.486;26.506;2023-02-15T03:46:46;27.27;;;12.57;;
19509;SDS011;9896;42.486;26.506;2023-02-15T03:49:21;23.37;;;13.17;;
19509;SDS011;9896;42.486;26.506;2023-02-15T03:51:51;24.53;;;13.53;;
19509;SDS011;9896;42.486;26.506;2023-02-15T03:54:23;25.43;;;12.20;;
19509;SDS011;9896;42.486;26.506;2023-02-15T03:57:09;25.47;;;12.20;;
19509;SDS011;9896;42.486;26.506;2023-02-15T03:59:57;32.30;;;15.87;;
19509;SDS011;9896;42.486;26.506;2023-02-15T04:02:49;40.20;;;18.13;;
19509;SDS011;9896;42.486;26.506;2023-02-15T04:05:27;27.13;;;13.60;;
19509;SDS011;9896;42.486;26.506;2023-02-15T04:07:53;26.13;;;12.83;;
19509;SDS011;9896;42.486;26.506;2023-02-15T04:10:19;23.33;;;11.87;;
19509;SDS011;9896;42.486;26.506;2023-02-15T04:13:03;28.30;;;13.57;;
19509;SDS011;9896;42.486;26.506;2023-02-15T04:15:28;26.40;;;12.70;;
19509;SDS011;9896;42.486;26.506;2023-02-15T04:18:13;29.47;;;13.37;;
19509;SDS011;9896;42.486;26.506;2023-02-15T04:20:39;25.07;;;12.27;;
19509;SDS011;9896;42.486;26.506;2023-02-15T04:23:23;26.47;;;12.20;;
19509;SDS011;9896;42.486;26.506;2023-02-15T04:26:07;26.70;;;12.67;;
19509;SDS011;9896;42.486;26.506;2023-02-15T04:28:32;26.87;;;13.63;;
19509;SDS011;9896;42.486;26.506;2023-02-15T04:30:58;28.93;;;14.80;;
19509;SDS011;9896;42.486;26.506;2023-02-15T04:33:23;31.80;;;15.80;;
19509;SDS011;9896;42.486;26.506;2023-02-15T04:35:49;25.70;;;11.90;;
19509;SDS011;9896;42.486;26.506;2023-02-15T04:38:14;22.77;;;12.17;;
19509;SDS011;9896;42.486;26.506;2023-02-15T04:40:40;23.00;;;11.67;;
19509;SDS011;9896;42.486;26.506;2023-02-15T04:43:06;28.87;;;12.83;;
19509;SDS011;9896;42.486;26.506;2023-02-15T04:45:31;23.17;;;12.53;;
19509;SDS011;9896;42.486;26.506;2023-02-15T04:47:57;27.50;;;13.47;;
19509;SDS011;9896;42.486;26.506;2023-02-15T04:50:23;27.67;;;12.93;;
19509;SDS011;9896;42.486;26.506;2023-02-15T04:52:48;27.03;;;13.67;;
19509;SDS011;9896;42.486;26.506;2023-02-15T04:55:14;25.20;;;12.33;;
19509;SDS011;9896;42.486;26.506;2023-02-15T04:57:39;23.27;;;12.10;;
19509;SDS011;9896;42.486;26.506;2023-02-15T05:00:05;27.93;;;14.33;;
19509;SDS011;9896;42.486;26.506;2023-02-15T05:02:31;27.33;;;13.27;;
19509;SDS011;9896;42.486;26.506;2023-02-15T05:04:57;23.27;;;11.83;;
19509;SDS011;9896;42.486;26.506;2023-02-15T05:07:22;22.17;;;11.43;;
19509;SDS011;9896;42.486;26.506;2023-02-15T05:09:48;23.17;;;10.87;;
19509;SDS011;9896;42.486;26.506;2023-02-15T05:12:15;22.30;;;10.67;;
19509;SDS011;9896;42.486;26.506;2023-02-15T05:14:40;16.87;;;8.83;;
19509;SDS011;9896;42.486;26.506;2023-02-15T05:17:06;21.23;;;10.67;;
19509;SDS011;9896;42.486;26.506;2023-02-15T05:19:31;19.27;;;9.50;;
19509;SDS011;9896;42.486;26.506;2023-02-15T05:21:57;24.13;;;12.47;;
19509;SDS011;9896;42.486;26.506;2023-02-15T05:24:23;26.90;;;12.80;;
19509;SDS011;9896;42.486;26.506;2023-02-15T05:27:08;21.23;;;9.47;;
19509;SDS011;9896;42.486;26.506;2023-02-15T05:29:54;27.43;;;13.13;;
19509;SDS011;9896;42.486;26.506;2023-02-15T05:32:20;21.97;;;11.67;;
19509;SDS011;9896;42.486;26.506;2023-02-15T05:34:45;23.63;;;10.87;;
19509;SDS011;9896;42.486;26.506;2023-02-15T05:37:11;30.67;;;12.10;;
19509;SDS011;9896;42.486;26.506;2023-02-15T05:39:36;28.07;;;12.60;;
19509;SDS011;9896;42.486;26.506;2023-02-15T05:42:02;18.67;;;8.53;;
19509;SDS011;9896;42.486;26.506;2023-02-15T05:44:28;27.23;;;11.77;;
19509;SDS011;9896;42.486;26.506;2023-02-15T05:46:53;33.93;;;13.53;;
19509;SDS011;9896;42.486;26.506;2023-02-15T05:49:19;23.30;;;10.93;;
19509;SDS011;9896;42.486;26.506;2023-02-15T05:51:44;26.00;;;12.83;;
19509;SDS011;9896;42.486;26.506;2023-02-15T05:54:10;27.03;;;12.60;;
19509;SDS011;9896;42.486;26.506;2023-02-15T05:56:35;23.20;;;13.27;;
19509;SDS011;9896;42.486;26.506;2023-02-15T05:59:01;25.60;;;11.73;;
19509;SDS011;9896;42.486;26.506;2023-02-15T06:01:26;24.53;;;11.70;;
19509;SDS011;9896;42.486;26.506;2023-02-15T06:03:52;27.93;;;13.13;;
19509;SDS011;9896;42.486;26.506;2023-02-15T06:06:18;21.30;;;10.40;;
19509;SDS011;9896;42.486;26.506;2023-02-15T06:08:43;27.67;;;12.90;;
19509;SDS011;9896;42.486;26.506;2023-02-15T06:11:09;25.30;;;14.10;;
19509;SDS011;9896;42.486;26.506;2023-02-15T06:13:35;19.97;;;10.67;;
19509;SDS011;9896;42.486;26.506;2023-02-15T06:16:00;19.87;;;9.33;;
19509;SDS011;9896;42.486;26.506;2023-02-15T06:18:26;13.20;;;6.77;;
19509;SDS011;9896;42.486;26.506;2023-02-15T06:20:51;20.80;;;9.83;;
19509;SDS011;9896;42.486;26.506;2023-02-15T06:23:17;18.33;;;7.97;;
19509;SDS011;9896;42.486;26.506;2023-02-15T06:25:44;29.80;;;13.17;;
19509;SDS011;9896;42.486;26.506;2023-02-15T06:28:10;21.27;;;9.97;;
19509;SDS011;9896;42.486;26.506;2023-02-15T06:30:36;21.80;;;8.97;;
19509;SDS011;9896;42.486;26.506;2023-02-15T06:33:01;11.83;;;5.60;;
19509;SDS011;9896;42.486;26.506;2023-02-15T06:35:27;24.70;;;11.23;;
19509;SDS011;9896;42.486;26.506;2023-02-15T06:37:53;23.07;;;12.33;;
19509;SDS011;9896;42.486;26.506;2023-02-15T06:40:18;30.13;;;12.30;;
19509;SDS011;9896;42.486;26.506;2023-02-15T06:42:44;36.67;;;15.13;;
19509;SDS011;9896;42.486;26.506;2023-02-15T06:45:10;40.80;;;16.17;;
19509;SDS011;9896;42.486;26.506;2023-02-15T06:47:36;40.20;;;16.77;;
19509;SDS011;9896;42.486;26.506;2023-02-15T06:50:03;30.53;;;15.47;;
19509;SDS011;9896;42.486;26.506;2023-02-15T06:52:29;22.13;;;9.87;;
19509;SDS011;9896;42.486;26.506;2023-02-15T06:54:55;22.23;;;11.50;;
19509;SDS011;9896;42.486;26.506;2023-02-15T06:57:20;23.97;;;8.83;;
19509;SDS011;9896;42.486;26.506;2023-02-15T06:59:46;12.13;;;6.90;;
19509;SDS011;9896;42.486;26.506;2023-02-15T07:02:11;21.17;;;9.47;;
19509;SDS011;9896;42.486;26.506;2023-02-15T07:04:37;26.23;;;13.90;;
19509;SDS011;9896;42.486;26.506;2023-02-15T07:07:03;26.20;;;13.03;;
19509;SDS011;9896;42.486;26.506;2023-02-15T07:09:29;12.43;;;6.43;;
19509;SDS011;9896;42.486;26.506;2023-02-15T07:11:54;13.67;;;7.60;;
19509;SDS011;9896;42.486;26.506;2023-02-15T07:14:39;12.77;;;6.40;;
19509;SDS011;9896;42.486;26.506;2023-02-15T07:17:05;18.07;;;10.43;;
19509;SDS011;9896;42.486;26.506;2023-02-15T07:19:31;25.23;;;11.10;;
19509;SDS011;9896;42.486;26.506;2023-02-15T07:21:56;10.23;;;5.13;;
19509;SDS011;9896;42.486;26.506;2023-02-15T07:24:22;16.23;;;8.40;;
19509;SDS011;9896;42.486;26.506;2023-02-15T07:26:47;15.63;;;7.53;;
19509;SDS011;9896;42.486;26.506;2023-02-15T07:29:13;5.63;;;3.10;;
19509;SDS011;9896;42.486;26.506;2023-02-15T07:31:39;16.37;;;7.73;;
19509;SDS011;9896;42.486;26.506;2023-02-15T07:34:05;13.87;;;6.50;;
19509;SDS011;9896;42.486;26.506;2023-02-15T07:36:31;7.40;;;4.53;;
19509;SDS011;9896;42.486;26.506;2023-02-15T07:38:57;14.60;;;7.17;;
19509;SDS011;9896;42.486;26.506;2023-02-15T07:41:23;17.20;;;8.47;;
19509;SDS011;9896;42.486;26.506;2023-02-15T07:43:48;20.10;;;9.53;;
19509;SDS011;9896;42.486;26.506;2023-02-15T07:46:14;16.50;;;8.07;;
19509;SDS011;9896;42.486;26.506;2023-02-15T07:48:41;17.67;;;9.07;;
19509;SDS011;9896;42.486;26.506;2023-02-15T07:51:08;16.57;;;8.00;;
19509;SDS011;9896;42.486;26.506;2023-02-15T07:53:35;23.77;;;12.20;;
19509;SDS011;9896;42.486;26.506;2023-02-15T07:56:02;21.67;;;9.73;;
19509;SDS011;9896;42.486;26.506;2023-02-15T07:58:31;19.97;;;10.27;;
19509;SDS011;9896;42.486;26.506;2023-02-15T08:01:15;18.40;;;8.27;;
19509;SDS011;9896;42.486;26.506;2023-02-15T08:03:41;10.93;;;5.33;;
19509;SDS011;9896;42.486;26.506;2023-02-15T08:06:06;19.47;;;10.33;;
19509;SDS011;9896;42.486;26.506;2023-02-15T08:08:35;17.57;;;8.73;;
19509;SDS011;9896;42.486;26.506;2023-02-15T08:13:46;18.43;;;10.57;;
19509;SDS011;9896;42.486;26.506;2023-02-15T08:16:22;15.33;;;7.10;;
19509;SDS011;9896;42.486;26.506;2023-02-15T08:18:52;9.40;;;5.50;;
19509;SDS011;9896;42.486;26.506;2023-02-15T08:21:18;14.47;;;7.43;;
19509;SDS011;9896;42.486;26.506;2023-02-15T08:23:45;15.50;;;8.60;;
19509;SDS011;9896;42.486;26.506;2023-02-15T08:26:10;15.80;;;9.17;;
19509;SDS011;9896;42.486;26.506;2023-02-15T08:28:36;13.97;;;8.13;;
19509;SDS011;9896;42.486;26.506;2023-02-15T08:31:08;17.83;;;9.07;;
19509;SDS011;9896;42.486;26.506;2023-02-15T08:33:36;15.77;;;8.50;;
19509;SDS011;9896;42.486;26.506;2023-02-15T08:36:04;16.60;;;8.87;;
19509;SDS011;9896;42.486;26.506;2023-02-15T08:38:31;22.73;;;9.97;;
19509;SDS011;9896;42.486;26.506;2023-02-15T08:40:58;17.90;;;8.10;;
19509;SDS011;9896;42.486;26.506;2023-02-15T08:43:33;18.13;;;9.80;;
19509;SDS011;9896;42.486;26.506;2023-02-15T08:45:58;21.73;;;9.43;;
19509;SDS011;9896;42.486;26.506;2023-02-15T08:48:24;19.80;;;10.63;;
19509;SDS011;9896;42.486;26.506;2023-02-15T08:50:49;18.47;;;9.43;;
19509;SDS011;9896;42.486;26.506;2023-02-15T08:53:15;19.57;;;9.37;;
19509;SDS011;9896;42.486;26.506;2023-02-15T08:55:41;23.80;;;10.67;;
19509;SDS011;9896;42.486;26.506;2023-02-15T08:58:07;20.23;;;9.73;;
19509;SDS011;9896;42.486;26.506;2023-02-15T09:00:32;17.73;;;9.40;;
19509;SDS011;9896;42.486;26.506;2023-02-15T09:02:58;21.13;;;9.83;;
19509;SDS011;9896;42.486;26.506;2023-02-15T09:05:23;21.63;;;10.93;;
19509;SDS011;9896;42.486;26.506;2023-02-15T09:07:49;17.60;;;9.40;;
19509;SDS011;9896;42.486;26.506;2023-02-15T09:10:15;18.40;;;9.77;;
19509;SDS011;9896;42.486;26.506;2023-02-15T09:12:40;17.57;;;8.57;;
19509;SDS011;9896;42.486;26.506;2023-02-15T09:15:06;14.87;;;7.00;;
19509;SDS011;9896;42.486;26.506;2023-02-15T09:17:32;16.63;;;7.60;;
19509;SDS011;9896;42.486;26.506;2023-02-15T09:19:57;18.23;;;9.87;;
19509;SDS011;9896;42.486;26.506;2023-02-15T09:22:23;18.50;;;9.23;;
19509;SDS011;9896;42.486;26.506;2023-02-15T09:24:48;19.03;;;9.70;;
19509;SDS011;9896;42.486;26.506;2023-02-15T09:27:14;17.90;;;6.87;;
19509;SDS011;9896;42.486;26.506;2023-02-15T09:29:39;17.63;;;10.23;;
19509;SDS011;9896;42.486;26.506;2023-02-15T09:32:05;18.40;;;9.13;;
19509;SDS011;9896;42.486;26.506;2023-02-15T09:34:31;19.43;;;9.10;;
19509;SDS011;9896;42.486;26.506;2023-02-15T09:36:56;22.80;;;10.13;;
19509;SDS011;9896;42.486;26.506;2023-02-15T09:39:23;12.50;;;6.97;;
19509;SDS011;9896;42.486;26.506;2023-02-15T09:42:00;17.50;;;9.03;;
19509;SDS011;9896;42.486;26.506;2023-02-15T09:59:02;18.87;;;8.87;;
19509;SDS011;9896;42.486;26.506;2023-02-15T10:04:21;18.33;;;10.43;;
19509;SDS011;9896;42.486;26.506;2023-02-15T10:07:00;17.57;;;9.17;;
19509;SDS011;9896;42.486;26.506;2023-02-15T10:12:40;16.63;;;8.53;;
19509;SDS011;9896;42.486;26.506;2023-02-15T10:28:45;13.77;;;7.30;;
19509;SDS011;9896;42.486;26.506;2023-02-15T10:39:47;15.40;;;8.40;;
19509;SDS011;9896;42.486;26.506;2023-02-15T10:50:49;8.23;;;4.93;;
19509;SDS011;9896;42.486;26.506;2023-02-15T11:07:08;14.07;;;5.90;;
19509;SDS011;9896;42.486;26.506;2023-02-15T11:09:44;16.10;;;8.50;;
19509;SDS011;9896;42.486;26.506;2023-02-15T11:12:14;14.53;;;8.70;;
19509;SDS011;9896;42.486;26.506;2023-02-15T11:14:55;19.00;;;9.13;;
19509;SDS011;9896;42.486;26.506;2023-02-15T11:17:30;16.50;;;9.33;;
19509;SDS011;9896;42.486;26.506;2023-02-15T11:23:16;14.57;;;9.23;;
19509;SDS011;9896;42.486;26.506;2023-02-15T11:25:44;12.57;;;6.70;;
19509;SDS011;9896;42.486;26.506;2023-02-15T11:28:18;11.67;;;6.93;;
19509;SDS011;9896;42.486;26.506;2023-02-15T11:30:50;17.03;;;8.63;;
19509;SDS011;9896;42.486;26.506;2023-02-15T11:33:33;15.50;;;9.17;;
19509;SDS011;9896;42.486;26.506;2023-02-15T11:38:36;16.87;;;8.53;;
19509;SDS011;9896;42.486;26.506;2023-02-15T11:41:17;14.23;;;8.70;;
19509;SDS011;9896;42.486;26.506;2023-02-15T11:43:49;14.63;;;8.03;;
19509;SDS011;9896;42.486;26.506;2023-02-15T11:46:21;15.70;;;9.27;;
19509;SDS011;9896;42.486;26.506;2023-02-15T11:48:47;15.63;;;8.80;;
19509;SDS011;9896;42.486;26.506;2023-02-15T11:51:16;17.13;;;9.27;;
19509;SDS011;9896;42.486;26.506;2023-02-15T11:53:44;12.20;;;6.67;;
19509;SDS011;9896;42.486;26.506;2023-02-15T11:56:20;18.03;;;8.90;;
19509;SDS011;9896;42.486;26.506;2023-02-15T11:59:04;15.43;;;10.00;;
19509;SDS011;9896;42.486;26.506;2023-02-15T12:01:45;15.07;;;9.40;;
19509;SDS011;9896;42.486;26.506;2023-02-15T12:06:51;16.07;;;8.47;;
19509;SDS011;9896;42.486;26.506;2023-02-15T12:11:54;15.20;;;9.20;;
19509;SDS011;9896;42.486;26.506;2023-02-15T12:14:46;23.37;;;10.23;;
19509;SDS011;9896;42.486;26.506;2023-02-15T12:17:14;17.70;;;9.17;;
19509;SDS011;9896;42.486;26.506;2023-02-15T12:19:41;17.80;;;9.63;;
19509;SDS011;9896;42.486;26.506;2023-02-15T12:22:21;15.23;;;9.13;;
19509;SDS011;9896;42.486;26.506;2023-02-15T12:24:50;21.50;;;9.70;;
19509;SDS011;9896;42.486;26.506;2023-02-15T12:27:20;15.33;;;9.17;;
19509;SDS011;9896;42.486;26.506;2023-02-15T12:29:52;13.50;;;7.73;;
19509;SDS011;9896;42.486;26.506;2023-02-15T12:32:56;12.30;;;6.73;;
19509;SDS011;9896;42.486;26.506;2023-02-15T12:35:14;17.57;;;10.70;;
19509;SDS011;9896;42.486;26.506;2023-02-15T12:37:57;13.03;;;8.13;;
19509;SDS011;9896;42.486;26.506;2023-02-15T12:40:30;16.07;;;9.00;;
19509;SDS011;9896;42.486;26.506;2023-02-15T12:42:58;16.27;;;8.30;;
19509;SDS011;9896;42.486;26.506;2023-02-15T12:48:13;15.23;;;9.33;;
19509;SDS011;9896;42.486;26.506;2023-02-15T12:50:41;14.10;;;8.67;;
19509;SDS011;9896;42.486;26.506;2023-02-15T12:53:19;16.07;;;9.93;;
19509;SDS011;9896;42.486;26.506;2023-02-15T12:55:56;16.37;;;9.60;;
19509;SDS011;9896;42.486;26.506;2023-02-15T12:58:25;13.87;;;8.60;;
19509;SDS011;9896;42.486;26.506;2023-02-15T13:06:21;14.83;;;8.87;;
19509;SDS011;9896;42.486;26.506;2023-02-15T13:08:51;15.67;;;10.07;;
19509;SDS011;9896;42.486;26.506;2023-02-15T13:11:36;12.43;;;7.90;;
19509;SDS011;9896;42.486;26.506;2023-02-15T13:14:04;13.23;;;8.20;;
19509;SDS011;9896;42.486;26.506;2023-02-15T13:16:42;15.60;;;8.13;;
19509;SDS011;9896;42.486;26.506;2023-02-15T13:19:12;10.33;;;7.13;;
19509;SDS011;9896;42.486;26.506;2023-02-15T13:21:44;14.73;;;8.10;;
19509;SDS011;9896;42.486;26.506;2023-02-15T13:26:48;12.80;;;5.87;;
19509;SDS011;9896;42.486;26.506;2023-02-15T13:29:19;10.43;;;5.70;;
19509;SDS011;9896;42.486;26.506;2023-02-15T13:31:49;11.13;;;6.23;;
19509;SDS011;9896;42.486;26.506;2023-02-15T13:34:34;4.30;;;3.30;;
19509;SDS011;9896;42.486;26.506;2023-02-15T13:43:10;9.17;;;6.63;;
19509;SDS011;9896;42.486;26.506;2023-02-15T14:02:56;11.37;;;7.10;;
19509;SDS011;9896;42.486;26.506;2023-02-15T14:09:03;11.70;;;6.33;;
19509;SDS011;9896;42.486;26.506;2023-02-15T14:14:30;11.43;;;6.77;;
19509;SDS011;9896;42.486;26.506;2023-02-15T14:17:19;15.93;;;8.97;;
19509;SDS011;9896;42.486;26.506;2023-02-15T14:20:20;15.33;;;8.63;;
19509;SDS011;9896;42.486;26.506;2023-02-15T14:23:01;12.63;;;7.97;;
19509;SDS011;9896;42.486;26.506;2023-02-15T14:28:53;14.00;;;8.20;;
19509;SDS011;9896;42.486;26.506;2023-02-15T14:31:41;15.23;;;7.83;;
19509;SDS011;9896;42.486;26.506;2023-02-15T14:34:19;12.33;;;7.50;;
19509;SDS011;9896;42.486;26.506;2023-02-15T14:36:51;17.27;;;7.60;;
19509;SDS011;9896;42.486;26.506;2023-02-15T14:42:29;13.30;;;7.73;;
19509;SDS011;9896;42.486;26.506;2023-02-15T14:45:01;14.33;;;8.30;;
19509;SDS011;9896;42.486;26.506;2023-02-15T14:47:42;13.20;;;7.23;;
19509;SDS011;9896;42.486;26.506;2023-02-15T14:58:35;13.70;;;8.50;;
19509;SDS011;9896;42.486;26.506;2023-02-15T15:01:09;24.37;;;10.03;;
19509;SDS011;9896;42.486;26.506;2023-02-15T15:03:35;17.00;;;7.77;;
19509;SDS011;9896;42.486;26.506;2023-02-15T15:06:20;17.00;;;9.63;;
19509;SDS011;9896;42.486;26.506;2023-02-15T15:08:54;15.93;;;8.97;;
19509;SDS011;9896;42.486;26.506;2023-02-15T15:13:54;16.27;;;7.90;;
19509;SDS011;9896;42.486;26.506;2023-02-15T15:19:04;19.00;;;8.67;;
19509;SDS011;9896;42.486;26.506;2023-02-15T15:38:21;23.80;;;12.27;;
19509;SDS011;9896;42.486;26.506;2023-02-15T15:49:20;27.27;;;12.70;;
19509;SDS011;9896;42.486;26.506;2023-02-15T15:51:49;32.57;;;14.33;;
19509;SDS011;9896;42.486;26.506;2023-02-15T15:54:24;33.53;;;16.40;;
19509;SDS011;9896;42.486;26.506;2023-02-15T15:56:58;30.20;;;14.63;;
19509;SDS011;9896;42.486;26.506;2023-02-15T15:59:29;27.00;;;13.93;;
19509;SDS011;9896;42.486;26.506;2023-02-15T16:01:56;39.67;;;17.07;;
19509;SDS011;9896;42.486;26.506;2023-02-15T16:04:31;30.87;;;15.27;;
19509;SDS011;9896;42.486;26.506;2023-02-15T16:07:05;26.63;;;13.97;;
19509;SDS011;9896;42.486;26.506;2023-02-15T16:09:59;35.07;;;16.67;;
19509;SDS011;9896;42.486;26.506;2023-02-15T16:12:33;41.13;;;19.57;;
19509;SDS011;9896;42.486;26.506;2023-02-15T16:15:02;34.23;;;18.07;;
19509;SDS011;9896;42.486;26.506;2023-02-15T16:17:40;32.23;;;16.87;;
19509;SDS011;9896;42.486;26.506;2023-02-15T16:20:15;35.40;;;18.23;;
19509;SDS011;9896;42.486;26.506;2023-02-15T16:22:47;25.67;;;13.77;;
19509;SDS011;9896;42.486;26.506;2023-02-15T16:27:47;42.23;;;21.90;;
19509;SDS011;9896;42.486;26.506;2023-02-15T16:30:24;51.83;;;25.50;;
19509;SDS011;9896;42.486;26.506;2023-02-15T16:33:02;59.00;;;27.03;;
19509;SDS011;9896;42.486;26.506;2023-02-15T16:35:30;98.67;;;44.67;;
19509;SDS011;9896;42.486;26.506;2023-02-15T16:37:56;102.57;;;45.77;;
19509;SDS011;9896;42.486;26.506;2023-02-15T16:42:51;69.97;;;32.70;;
19509;SDS011;9896;42.486;26.506;2023-02-15T16:45:19;52.03;;;24.73;;
19509;SDS011;9896;42.486;26.506;2023-02-15T16:47:50;47.53;;;22.50;;
19509;SDS011;9896;42.486;26.506;2023-02-15T16:50:22;63.63;;;26.97;;
19509;SDS011;9896;42.486;26.506;2023-02-15T16:52:55;59.83;;;29.43;;
19509;SDS011;9896;42.486;26.506;2023-02-15T16:55:23;62.20;;;32.03;;
19509;SDS011;9896;42.486;26.506;2023-02-15T16:57:55;53.87;;;28.70;;
19509;SDS011;9896;42.486;26.506;2023-02-15T17:00:25;77.40;;;38.23;;
19509;SDS011;9896;42.486;26.506;2023-02-15T17:05:46;72.37;;;33.27;;
19509;SDS011;9896;42.486;26.506;2023-02-15T17:08:41;82.47;;;38.60;;
19509;SDS011;9896;42.486;26.506;2023-02-15T17:11:14;70.60;;;34.87;;
19509;SDS011;9896;42.486;26.506;2023-02-15T17:19:27;88.63;;;42.60;;
19509;SDS011;9896;42.486;26.506;2023-02-15T17:22:02;72.10;;;35.73;;
19509;SDS011;9896;42.486;26.506;2023-02-15T17:24:38;75.80;;;37.73;;
19509;SDS011;9896;42.486;26.506;2023-02-15T17:27:10;91.03;;;42.27;;
19509;SDS011;9896;42.486;26.506;2023-02-15T17:29:43;75.13;;;36.60;;
19509;SDS011;9896;42.486;26.506;2023-02-15T17:32:13;112.23;;;50.17;;
19509;SDS011;9896;42.486;26.506;2023-02-15T17:37:13;91.23;;;37.87;;
19509;SDS011;9896;42.486;26.506;2023-02-15T17:39:47;55.87;;;27.33;;
19509;SDS011;9896;42.486;26.506;2023-02-15T17:42:13;66.47;;;33.17;;
19509;SDS011;9896;42.486;26.506;2023-02-15T17:44:38;78.40;;;36.80;;
19509;SDS011;9896;42.486;26.506;2023-02-15T17:47:04;89.40;;;44.00;;
19509;SDS011;9896;42.486;26.506;2023-02-15T17:49:31;93.43;;;44.30;;
19509;SDS011;9896;42.486;26.506;2023-02-15T17:52:00;84.73;;;39.90;;
19509;SDS011;9896;42.486;26.506;2023-02-15T17:54:26;96.30;;;45.33;;
19509;SDS011;9896;42.486;26.506;2023-02-15T17:57:11;72.80;;;35.50;;
19509;SDS011;9896;42.486;26.506;2023-02-15T17:59:38;52.63;;;22.90;;
19509;SDS011;9896;42.486;26.506;2023-02-15T18:02:23;40.40;;;19.33;;
19509;SDS011;9896;42.486;26.506;2023-02-15T18:05:14;38.93;;;18.80;;
19509;SDS011;9896;42.486;26.506;2023-02-15T18:07:58;36.50;;;17.93;;
19509;SDS011;9896;42.486;26.506;2023-02-15T18:10:43;29.63;;;15.07;;
19509;SDS011;9896;42.486;26.506;2023-02-15T18:13:27;29.10;;;15.23;;
19509;SDS011;9896;42.486;26.506;2023-02-15T18:15:54;29.07;;;15.00;;
19509;SDS011;9896;42.486;26.506;2023-02-15T18:18:20;34.80;;;15.13;;